createdAt,value
2018-02-22T00:01:45.616Z,12.37
2018-02-22T00:04:11.856Z,12.37
2018-02-22T00:06:38.136Z,11.40
2018-02-22T00:09:04.469Z,12.27
2018-02-22T00:11:30.702Z,13.13
2018-02-22T00:13:56.975Z,13.30
2018-02-22T00:16:23.204Z,12.00
2018-02-22T00:18:49.496Z,11.83
2018-02-22T00:21:15.779Z,11.63
2018-02-22T00:23:42.007Z,10.73
2018-02-22T00:26:08.232Z,12.23
2018-02-22T00:28:34.580Z,11.00
2018-02-22T00:31:00.928Z,12.63
2018-02-22T00:33:27.170Z,10.73
2018-02-22T00:35:53.427Z,12.10
2018-02-22T00:38:19.662Z,12.17
2018-02-22T00:40:45.928Z,11.93
2018-02-22T00:43:12.199Z,11.03
2018-02-22T00:45:38.427Z,11.33
2018-02-22T00:48:04.669Z,10.23
2018-02-22T00:50:31.023Z,11.50
2018-02-22T00:52:57.299Z,10.97
2018-02-22T00:55:23.523Z,11.97
2018-02-22T00:57:49.776Z,10.90
2018-02-22T01:00:16.167Z,11.17
2018-02-22T01:02:42.411Z,11.27
2018-02-22T01:05:08.675Z,11.53
2018-02-22T01:07:34.912Z,11.33
2018-02-22T01:10:01.260Z,12.17
2018-02-22T01:12:27.524Z,10.90
2018-02-22T01:14:53.773Z,11.37
2018-02-22T01:17:20.017Z,11.03
2018-02-22T01:19:46.432Z,10.37
2018-02-22T01:22:12.655Z,11.07
2018-02-22T01:24:38.911Z,12.23
2018-02-22T01:27:05.192Z,12.23
2018-02-22T01:29:31.552Z,11.77
2018-02-22T01:31:57.781Z,11.10
2018-02-22T01:34:24.044Z,11.60
2018-02-22T01:36:50.283Z,10.83
2018-02-22T01:39:16.636Z,10.77
2018-02-22T01:41:42.910Z,10.50
2018-02-22T01:44:09.161Z,10.07
2018-02-22T01:46:35.399Z,9.90
2018-02-22T01:49:01.849Z,10.07
2018-02-22T01:51:28.080Z,10.23
2018-02-22T01:53:54.315Z,10.50
2018-02-22T01:56:20.573Z,10.20
2018-02-22T01:58:47.003Z,10.57
2018-02-22T02:01:13.255Z,10.53
2018-02-22T02:03:39.512Z,11.23
2018-02-22T02:06:05.748Z,10.20
2018-02-22T02:08:32.235Z,10.87
2018-02-22T02:10:58.493Z,9.33
2018-02-22T02:13:24.768Z,11.70
2018-02-22T02:15:50.998Z,10.90
2018-02-22T02:18:17.444Z,25.57
2018-02-22T02:20:43.767Z,19.30
2018-02-22T02:23:09.967Z,9.97
2018-02-22T02:25:36.226Z,9.73
2018-02-22T02:28:07.638Z,10.17
2018-02-22T02:30:33.872Z,10.10
2018-02-22T02:33:00.159Z,10.47
2018-02-22T02:35:26.395Z,9.97
2018-02-22T02:37:52.761Z,10.73
2018-02-22T02:40:19.037Z,9.57
2018-02-22T02:42:45.273Z,9.40
2018-02-22T02:45:11.500Z,10.93
2018-02-22T02:47:37.795Z,10.17
2018-02-22T02:50:04.031Z,10.37
2018-02-22T02:52:30.251Z,10.10
2018-02-22T02:54:56.508Z,11.03
2018-02-22T02:57:22.841Z,9.97
2018-02-22T02:59:49.138Z,9.47
2018-02-22T03:02:15.395Z,10.73
2018-02-22T03:04:41.625Z,10.97
2018-02-22T03:07:07.855Z,9.50
2018-02-22T03:09:34.153Z,9.70
2018-02-22T03:12:00.408Z,10.37
2018-02-22T03:14:26.628Z,9.67
2018-02-22T03:16:53.539Z,10.40
2018-02-22T03:19:19.775Z,11.23
2018-02-22T03:21:46.003Z,11.13
2018-02-22T03:24:12.255Z,11.00
2018-02-22T03:26:38.497Z,11.37
2018-02-22T03:29:04.876Z,11.87
2018-02-22T03:31:31.141Z,15.07
2018-02-22T03:33:57.368Z,13.27
2018-02-22T03:36:23.692Z,11.73
2018-02-22T03:38:49.987Z,11.53
2018-02-22T03:41:16.223Z,11.43
2018-02-22T03:43:42.472Z,10.60
2018-02-22T03:46:08.721Z,11.27
2018-02-22T03:48:35.014Z,10.80
2018-02-22T03:51:01.247Z,11.83
2018-02-22T03:53:27.503Z,10.80
2018-02-22T03:55:53.743Z,11.37
2018-02-22T03:58:20.036Z,12.03
2018-02-22T04:00:46.300Z,10.77
2018-02-22T04:03:12.540Z,12.57
2018-02-22T04:05:38.848Z,12.63
2018-02-22T04:08:05.204Z,12.67
2018-02-22T04:10:31.428Z,12.57
2018-02-22T04:12:57.679Z,12.93
2018-02-22T04:15:24.009Z,12.20
2018-02-22T04:17:50.339Z,12.37
2018-02-22T04:20:16.578Z,12.47
2018-02-22T04:22:42.852Z,12.40
2018-02-22T04:25:09.118Z,11.90
2018-02-22T04:27:35.468Z,12.50
2018-02-22T04:30:01.734Z,12.53
2018-02-22T04:32:27.997Z,13.07
2018-02-22T04:34:54.263Z,11.10
2018-02-22T04:37:20.694Z,12.70
2018-02-22T04:39:46.927Z,11.50
2018-02-22T04:42:13.155Z,13.37
2018-02-22T04:44:39.413Z,13.03
2018-02-22T04:47:05.838Z,14.53
2018-02-22T04:49:32.071Z,15.03
2018-02-22T04:51:58.338Z,12.73
2018-02-22T04:54:24.586Z,11.90
2018-02-22T04:56:50.844Z,11.80
2018-02-22T04:59:17.108Z,13.50
2018-02-22T05:01:43.331Z,12.43
2018-02-22T05:04:09.599Z,12.70
2018-02-22T05:06:35.852Z,12.60
2018-02-22T05:09:02.152Z,14.23
2018-02-22T05:11:28.370Z,13.07
2018-02-22T05:13:54.643Z,13.13
2018-02-22T05:16:20.871Z,12.57
2018-02-22T05:18:47.092Z,17.90
2018-02-22T05:21:13.354Z,14.40
2018-02-22T05:23:39.582Z,12.67
2018-02-22T05:26:05.807Z,12.17
2018-02-22T05:28:32.068Z,12.37
2018-02-22T05:30:58.308Z,11.47
2018-02-22T05:33:24.520Z,11.60
2018-02-22T05:35:50.795Z,12.83
2018-02-22T05:38:17.015Z,13.13
2018-02-22T05:40:43.256Z,12.50
2018-02-22T05:43:09.516Z,12.90
2018-02-22T05:45:35.757Z,13.00
2018-02-22T05:48:01.988Z,14.53
2018-02-22T05:50:28.235Z,12.53
2018-02-22T05:52:54.467Z,11.40
2018-02-22T05:55:20.699Z,12.20
2018-02-22T05:57:46.962Z,14.43
2018-02-22T06:00:13.201Z,13.50
2018-02-22T06:02:39.446Z,13.57
2018-02-22T06:05:05.740Z,12.10
2018-02-22T06:07:31.973Z,12.50
2018-02-22T06:09:58.196Z,13.43
2018-02-22T06:12:24.448Z,14.17
2018-02-22T06:14:50.684Z,13.73
2018-02-22T06:17:16.916Z,13.00
2018-02-22T06:19:43.172Z,13.67
2018-02-22T06:22:09.407Z,15.00
2018-02-22T06:24:35.634Z,14.30
2018-02-22T06:27:01.888Z,13.90
2018-02-22T06:29:28.120Z,13.90
2018-02-22T06:31:54.349Z,14.07
2018-02-22T06:34:20.615Z,15.13
2018-02-22T06:36:46.908Z,14.83
2018-02-22T06:39:13.140Z,15.33
2018-02-22T06:41:39.402Z,14.70
2018-02-22T06:44:05.663Z,13.53
2018-02-22T06:46:31.912Z,15.00
2018-02-22T06:48:58.167Z,13.97
2018-02-22T06:51:24.416Z,16.80
2018-02-22T06:53:50.642Z,15.30
2018-02-22T06:56:16.904Z,15.90
2018-02-22T06:58:43.132Z,15.77
2018-02-22T07:01:09.380Z,14.93
2018-02-22T07:03:35.636Z,16.90
2018-02-22T07:06:01.878Z,15.83
2018-02-22T07:08:28.124Z,15.30
2018-02-22T07:10:54.380Z,17.63
2018-02-22T07:13:20.613Z,17.43
2018-02-22T07:15:46.831Z,16.93
2018-02-22T07:18:13.085Z,18.17
2018-02-22T07:20:39.311Z,16.70
2018-02-22T07:23:16.650Z,19.00
2018-02-22T07:25:31.887Z,18.10
2018-02-22T07:27:58.121Z,17.60
2018-02-22T07:30:24.355Z,18.50
2018-02-22T07:32:50.603Z,18.23
2018-02-22T07:35:16.836Z,18.23
2018-02-22T07:37:43.076Z,18.60
2018-02-22T07:40:09.320Z,18.73
2018-02-22T07:42:35.556Z,19.17
2018-02-22T07:45:01.780Z,19.37
2018-02-22T07:47:28.028Z,19.00
2018-02-22T07:49:54.247Z,18.73
2018-02-22T07:52:20.460Z,18.23
2018-02-22T07:54:46.708Z,19.17
2018-02-22T07:57:12.932Z,18.30
2018-02-22T07:59:39.164Z,18.33
2018-02-22T08:02:05.412Z,18.10
2018-02-22T08:04:31.644Z,18.70
2018-02-22T08:06:57.847Z,19.27
2018-02-22T08:09:24.083Z,19.30
2018-02-22T08:11:50.296Z,20.17
2018-02-22T08:14:16.568Z,19.30
2018-02-22T08:16:42.826Z,19.30
2018-02-22T08:19:09.061Z,18.33
2018-02-22T08:21:35.276Z,19.97
2018-02-22T08:24:01.517Z,18.67
2018-02-22T08:26:27.772Z,20.20
2018-02-22T08:28:53.988Z,19.03
2018-02-22T08:31:20.236Z,18.60
2018-02-22T08:33:46.452Z,18.90
2018-02-22T08:36:12.679Z,17.00
2018-02-22T08:38:38.940Z,16.50
2018-02-22T08:41:05.202Z,13.80
2018-02-22T08:43:31.434Z,15.77
2018-02-22T08:45:57.696Z,14.17
2018-02-22T08:48:23.916Z,15.27
2018-02-22T08:50:50.152Z,14.57
2018-02-22T08:53:16.428Z,14.47
2018-02-22T08:55:42.660Z,14.07
2018-02-22T08:58:08.871Z,14.43
2018-02-22T09:00:35.147Z,14.77
2018-02-22T09:03:01.376Z,14.53
2018-02-22T09:05:27.604Z,14.53
2018-02-22T09:07:53.848Z,13.93
2018-02-22T09:10:20.064Z,14.10
2018-02-22T09:12:46.276Z,14.97
2018-02-22T09:15:12.528Z,13.97
2018-02-22T09:17:38.751Z,14.03
2018-02-22T09:20:04.983Z,13.83
2018-02-22T09:22:31.231Z,13.57
2018-02-22T09:24:57.464Z,13.90
2018-02-22T09:27:23.731Z,14.07
2018-02-22T09:29:49.988Z,13.43
2018-02-22T09:32:16.214Z,12.43
2018-02-22T09:34:42.431Z,13.77
2018-02-22T09:37:08.675Z,12.60
2018-02-22T09:39:34.895Z,12.63
2018-02-22T09:42:01.116Z,13.13
2018-02-22T09:44:27.355Z,10.67
2018-02-22T09:46:53.584Z,9.47
2018-02-22T09:49:19.800Z,10.73
2018-02-22T09:51:46.037Z,10.67
2018-02-22T09:54:12.259Z,10.90
2018-02-22T09:56:38.497Z,10.80
2018-02-22T09:59:04.754Z,9.77
2018-02-22T10:01:30.993Z,10.30
2018-02-22T10:03:57.215Z,9.90
2018-02-22T10:06:23.466Z,10.07
2018-02-22T10:08:49.692Z,9.60
2018-02-22T10:11:15.912Z,9.87
2018-02-22T10:13:42.173Z,9.30
2018-02-22T10:16:08.392Z,9.40
2018-02-22T10:18:34.605Z,9.43
2018-02-22T10:21:00.872Z,10.53
2018-02-22T10:23:27.111Z,9.80
2018-02-22T10:25:53.380Z,9.33
2018-02-22T10:28:19.664Z,7.97
2018-02-22T10:30:45.960Z,9.10
2018-02-22T10:33:12.191Z,8.70
2018-02-22T10:35:38.449Z,8.50
2018-02-22T10:38:04.663Z,9.33
2018-02-22T10:40:30.883Z,8.73
2018-02-22T10:42:57.129Z,8.30
2018-02-22T10:45:23.357Z,9.43
2018-02-22T10:47:49.576Z,9.57
2018-02-22T10:50:15.828Z,9.83
2018-02-22T10:52:42.067Z,9.40
2018-02-22T10:55:08.308Z,8.87
2018-02-22T10:57:34.552Z,9.17
2018-02-22T11:00:00.775Z,9.53
2018-02-22T11:02:33.220Z,8.77
2018-02-22T11:04:59.474Z,8.80
2018-02-22T11:07:25.701Z,9.07
2018-02-22T11:09:51.933Z,9.30
2018-02-22T11:12:18.179Z,9.03
2018-02-22T11:14:44.388Z,7.90
2018-02-22T11:17:10.607Z,8.43
2018-02-22T11:19:36.878Z,9.07
2018-02-22T11:22:03.117Z,8.63
2018-02-22T11:24:29.349Z,8.40
2018-02-22T11:26:55.628Z,8.30
2018-02-22T11:29:22.585Z,9.20
2018-02-22T11:31:48.816Z,9.17
2018-02-22T11:34:15.072Z,8.47
2018-02-22T11:36:41.296Z,8.83
2018-02-22T11:39:07.523Z,9.00
2018-02-22T11:41:33.807Z,8.50
2018-02-22T11:44:00.061Z,7.23
2018-02-22T11:46:26.311Z,7.53
2018-02-22T11:48:52.566Z,7.60
2018-02-22T11:51:18.808Z,6.23
2018-02-22T11:53:45.032Z,7.37
2018-02-22T11:56:11.277Z,6.83
2018-02-22T11:58:37.517Z,7.90
2018-02-22T12:01:03.758Z,7.57
2018-02-22T12:03:30.024Z,7.50
2018-02-22T12:05:56.265Z,7.93
2018-02-22T12:08:22.509Z,7.57
2018-02-22T12:10:48.777Z,7.33
2018-02-22T12:13:15.016Z,8.87
2018-02-22T12:15:41.227Z,8.60
2018-02-22T12:18:07.504Z,8.23
2018-02-22T12:20:33.724Z,8.50
2018-02-22T12:22:59.957Z,7.57
2018-02-22T12:25:26.219Z,8.65
2018-02-22T12:27:52.436Z,7.97
2018-02-22T12:30:18.690Z,8.05
2018-02-22T12:32:44.977Z,8.30
2018-02-22T12:35:11.203Z,7.45
2018-02-22T12:37:37.440Z,7.90
2018-02-22T12:40:03.733Z,8.13
2018-02-22T12:42:29.967Z,7.62
2018-02-22T12:44:56.193Z,7.25
2018-02-22T12:47:22.448Z,9.05
2018-02-22T12:49:48.754Z,7.22
2018-02-22T12:52:14.951Z,7.18
2018-02-22T12:54:41.199Z,7.12
2018-02-22T12:57:07.433Z,6.82
2018-02-22T12:59:33.650Z,6.85
2018-02-22T13:01:59.909Z,7.37
2018-02-22T13:04:26.124Z,7.37
2018-02-22T13:06:52.396Z,8.25
2018-02-22T13:09:18.652Z,7.25
2018-02-22T13:11:44.880Z,7.85
2018-02-22T13:14:11.104Z,7.30
2018-02-22T13:16:37.360Z,6.53
2018-02-22T13:19:03.584Z,6.37
2018-02-22T13:21:29.824Z,6.18
2018-02-22T13:23:56.086Z,6.28
2018-02-22T13:26:22.304Z,5.75
2018-02-22T13:28:48.549Z,5.55
2018-02-22T13:31:14.834Z,4.95
2018-02-22T13:33:53.231Z,4.97
2018-02-22T13:36:19.487Z,6.22
2018-02-22T13:38:58.008Z,5.80
2018-02-22T13:41:24.265Z,6.15
2018-02-22T13:44:02.667Z,6.40
2018-02-22T13:46:28.923Z,6.60
2018-02-22T13:49:07.378Z,6.90
2018-02-22T13:51:33.652Z,7.40
2018-02-22T13:53:59.896Z,6.80
2018-02-22T13:56:38.324Z,7.30
2018-02-22T13:59:04.536Z,6.87
2018-02-22T14:01:43.041Z,7.70
2018-02-22T14:04:09.259Z,7.32
2018-02-22T14:06:35.475Z,6.97
2018-02-22T14:09:01.720Z,6.75
2018-02-22T14:11:27.937Z,7.00
2018-02-22T14:13:54.161Z,7.40
2018-02-22T14:16:20.412Z,6.53
2018-02-22T14:18:46.635Z,7.07
2018-02-22T14:21:12.863Z,7.30
2018-02-22T14:23:39.119Z,6.83
2018-02-22T14:26:05.356Z,6.70
2018-02-22T14:28:31.587Z,7.20
2018-02-22T14:30:57.832Z,6.90
2018-02-22T14:33:24.076Z,7.50
2018-02-22T14:35:50.293Z,6.73
2018-02-22T14:38:16.551Z,8.50
2018-02-22T14:40:42.780Z,5.60
2018-02-22T14:43:09.026Z,5.80
2018-02-22T14:45:35.304Z,5.07
2018-02-22T14:48:02.153Z,5.40
2018-02-22T14:50:28.379Z,5.43
2018-02-22T14:52:54.633Z,5.73
2018-02-22T14:55:20.852Z,5.83
2018-02-22T14:57:47.071Z,5.13
2018-02-22T15:00:13.326Z,6.43
2018-02-22T15:02:39.549Z,6.17
2018-02-22T15:05:05.789Z,6.20
2018-02-22T15:07:32.087Z,6.80
2018-02-22T15:09:58.307Z,6.97
2018-02-22T15:12:24.532Z,6.33
2018-02-22T15:14:50.787Z,6.13
2018-02-22T15:17:17.051Z,6.50
2018-02-22T15:19:43.273Z,6.20
2018-02-22T15:22:09.533Z,6.47
2018-02-22T15:24:35.760Z,13.07
2018-02-22T15:27:01.998Z,6.47
2018-02-22T15:29:28.247Z,6.10
2018-02-22T15:31:54.468Z,5.97
2018-02-22T15:34:20.731Z,6.27
2018-02-22T15:36:46.972Z,5.63
2018-02-22T15:39:13.215Z,5.90
2018-02-22T15:41:39.447Z,5.97
2018-02-22T15:44:05.756Z,5.37
2018-02-22T15:46:32.052Z,5.70
2018-02-22T15:48:58.244Z,5.70
2018-02-22T15:51:24.489Z,5.67
2018-02-22T15:53:50.737Z,5.47
2018-02-22T15:56:16.945Z,5.57
2018-02-22T15:58:43.186Z,5.23
2018-02-22T16:01:09.408Z,5.10
2018-02-22T16:03:35.640Z,5.40
2018-02-22T16:06:01.896Z,5.53
2018-02-22T16:08:28.193Z,4.70
2018-02-22T16:10:54.458Z,4.70
2018-02-22T16:13:20.710Z,4.60
2018-02-22T16:15:46.940Z,5.13
2018-02-22T16:18:13.152Z,5.37
2018-02-22T16:20:39.420Z,4.70
2018-02-22T16:23:05.636Z,4.00
2018-02-22T16:25:31.880Z,4.40
2018-02-22T16:27:58.169Z,4.30
2018-02-22T16:30:24.397Z,4.30
2018-02-22T16:32:50.654Z,3.87
2018-02-22T16:35:16.961Z,5.30
2018-02-22T16:37:43.179Z,4.23
2018-02-22T16:40:09.408Z,4.37
2018-02-22T16:42:35.672Z,4.17
2018-02-22T16:45:01.918Z,3.87
2018-02-22T16:47:28.149Z,4.13
2018-02-22T16:49:54.436Z,3.53
2018-02-22T16:52:20.704Z,4.73
2018-02-22T16:54:46.929Z,4.57
2018-02-22T16:57:13.195Z,4.53
2018-02-22T16:59:39.436Z,5.03
2018-02-22T17:02:06.091Z,4.07
2018-02-22T17:04:32.360Z,3.90
2018-02-22T17:06:58.615Z,3.67
2018-02-22T17:09:24.943Z,3.90
2018-02-22T17:11:51.172Z,4.03
2018-02-22T17:14:17.467Z,4.03
2018-02-22T17:16:43.692Z,3.63
2018-02-22T17:19:10.960Z,4.50
2018-02-22T17:21:37.212Z,4.60
2018-02-22T17:24:03.498Z,4.57
2018-02-22T17:26:35.867Z,3.83
2018-02-22T17:29:08.098Z,4.23
2018-02-22T17:31:40.392Z,4.10
2018-02-22T17:34:06.677Z,4.13
2018-02-22T17:36:33.753Z,26.73
2018-02-22T17:39:01.071Z,10.23
2018-02-22T17:41:38.292Z,4.10
2018-02-22T17:44:04.624Z,4.57
2018-02-22T17:46:30.895Z,4.93
2018-02-22T17:48:57.191Z,4.80
2018-02-22T17:51:23.500Z,5.23
2018-02-22T17:53:49.720Z,5.20
2018-02-22T17:56:16.005Z,6.20
2018-02-22T17:58:42.304Z,5.23
2018-02-22T18:01:08.588Z,5.13
2018-02-22T18:03:34.878Z,5.27
2018-02-22T18:06:01.180Z,5.03
2018-02-22T18:08:27.458Z,5.87
2018-02-22T18:10:53.731Z,5.87
2018-02-22T18:13:19.998Z,7.43
2018-02-22T18:15:46.265Z,29.93
2018-02-22T18:18:12.572Z,6.70
2018-02-22T18:20:38.848Z,5.77
2018-02-22T18:23:05.244Z,5.77
2018-02-22T18:25:31.532Z,6.00
2018-02-22T18:27:57.835Z,5.70
2018-02-22T18:30:24.115Z,5.80
2018-02-22T18:32:50.347Z,6.17
2018-02-22T18:35:16.628Z,6.23
2018-02-22T18:37:49.004Z,5.77
2018-02-22T18:40:21.329Z,5.27
2018-02-22T18:42:49.612Z,6.03
2018-02-22T18:45:15.866Z,5.63
2018-02-22T18:47:42.220Z,6.30
2018-02-22T18:50:08.551Z,6.20
2018-02-22T18:52:34.815Z,6.63
2018-02-22T18:55:01.110Z,6.13
2018-02-22T18:57:27.352Z,5.37
2018-02-22T18:59:53.577Z,6.47
2018-02-22T19:02:19.840Z,5.57
2018-02-22T19:04:46.120Z,5.93
2018-02-22T19:07:12.348Z,6.57
2018-02-22T19:09:38.612Z,7.00
2018-02-22T19:12:04.866Z,6.53
2018-02-22T19:14:31.096Z,6.10
2018-02-22T19:16:57.401Z,6.87
2018-02-22T19:19:23.644Z,6.13
2018-02-22T19:21:49.912Z,6.43
2018-02-22T19:24:16.183Z,5.83
2018-02-22T19:26:42.404Z,6.63
2018-02-22T19:29:08.643Z,6.57
2018-02-22T19:31:35.893Z,6.40
2018-02-22T19:34:02.135Z,6.67
2018-02-22T19:36:28.394Z,5.73
2018-02-22T19:38:54.681Z,6.13
2018-02-22T19:41:20.990Z,5.40
2018-02-22T19:43:47.315Z,6.43
2018-02-22T19:46:13.588Z,6.40
2018-02-22T19:48:39.823Z,7.47
2018-02-22T19:51:06.097Z,6.70
2018-02-22T19:53:32.375Z,5.60
2018-02-22T19:55:58.751Z,5.47
2018-02-22T19:58:25.069Z,6.40
2018-02-22T20:00:51.380Z,6.70
2018-02-22T20:03:17.733Z,6.50
2018-02-22T20:05:43.976Z,6.00
2018-02-22T20:08:10.288Z,7.93
2018-02-22T20:10:36.588Z,5.97
2018-02-22T20:13:02.850Z,6.67
2018-02-22T20:15:29.149Z,6.53
2018-02-22T20:17:55.404Z,6.97
2018-02-22T20:20:21.680Z,7.00
2018-02-22T20:22:47.933Z,6.30
2018-02-22T20:25:14.183Z,6.50
2018-02-22T20:27:40.432Z,7.23
2018-02-22T20:30:06.702Z,7.10
2018-02-22T20:32:32.939Z,6.00
2018-02-22T20:34:59.186Z,6.23
2018-02-22T20:37:25.868Z,6.63
2018-02-22T20:39:52.174Z,7.67
2018-02-22T20:42:18.641Z,6.93
2018-02-22T20:44:44.884Z,6.30
2018-02-22T20:47:11.155Z,7.10
2018-02-22T20:49:37.549Z,7.03
2018-02-22T20:52:04.670Z,7.50
2018-02-22T20:54:31.248Z,7.03
2018-02-22T20:56:57.591Z,7.33
2018-02-22T20:59:23.911Z,7.53
2018-02-22T21:01:50.164Z,6.13
2018-02-22T21:04:17.296Z,7.27
2018-02-22T21:06:43.911Z,6.40
2018-02-22T21:09:10.138Z,6.80
2018-02-22T21:11:36.369Z,7.47
2018-02-22T21:14:02.647Z,7.83
2018-02-22T21:16:28.884Z,7.83
2018-02-22T21:18:55.140Z,7.50
2018-02-22T21:21:21.404Z,7.20
2018-02-22T21:23:47.654Z,7.40
2018-02-22T21:26:13.893Z,6.60
2018-02-22T21:28:40.225Z,6.50
2018-02-22T21:31:06.531Z,7.97
2018-02-22T21:33:33.977Z,7.93
2018-02-22T21:36:00.296Z,6.97
2018-02-22T21:38:26.560Z,7.87
2018-02-22T21:40:52.812Z,7.40
2018-02-22T21:43:19.085Z,6.83
2018-02-22T21:45:45.463Z,8.17
2018-02-22T21:48:11.725Z,8.23
2018-02-22T21:50:37.988Z,7.63
2018-02-22T21:53:04.232Z,7.80
2018-02-22T21:55:30.496Z,6.47
2018-02-22T21:57:56.759Z,7.23
2018-02-22T22:00:22.992Z,8.37
2018-02-22T22:02:49.232Z,7.47
2018-02-22T22:05:15.502Z,7.63
2018-02-22T22:07:41.889Z,7.90
2018-02-22T22:10:08.186Z,7.87
2018-02-22T22:12:34.484Z,9.00
2018-02-22T22:15:00.752Z,8.70
2018-02-22T22:17:26.993Z,9.70
2018-02-22T22:19:53.261Z,8.13
2018-02-22T22:22:19.506Z,8.10
2018-02-22T22:24:45.740Z,7.80
2018-02-22T22:27:12.027Z,7.60
2018-02-22T22:29:38.260Z,8.30
2018-02-22T22:32:04.622Z,8.10
2018-02-22T22:34:30.915Z,7.47
2018-02-22T22:36:57.142Z,8.13
2018-02-22T22:39:23.364Z,7.77
2018-02-22T22:41:49.743Z,7.43
2018-02-22T22:44:16.064Z,8.70
2018-02-22T22:46:42.577Z,8.77
2018-02-22T22:49:08.865Z,8.27
2018-02-22T22:51:35.272Z,8.70
2018-02-22T22:54:01.552Z,8.53
2018-02-22T22:56:27.855Z,8.07
2018-02-22T22:58:54.078Z,8.43
2018-02-22T23:01:20.316Z,8.40
2018-02-22T23:03:46.712Z,8.37
2018-02-22T23:06:13.935Z,7.33
2018-02-22T23:08:40.172Z,8.23
2018-02-22T23:11:06.454Z,8.53
2018-02-22T23:13:32.697Z,9.17
2018-02-22T23:15:58.949Z,7.57
2018-02-22T23:18:25.211Z,8.73
2018-02-22T23:20:51.447Z,8.40
2018-02-22T23:23:17.884Z,8.20
2018-02-22T23:25:44.361Z,8.63
2018-02-22T23:28:10.636Z,9.33
2018-02-22T23:30:36.871Z,8.87
2018-02-22T23:33:03.204Z,8.33
2018-02-22T23:35:29.451Z,8.70
2018-02-22T23:37:55.797Z,8.57
2018-02-22T23:40:32.029Z,9.43
2018-02-22T23:42:58.283Z,8.20
2018-02-22T23:45:24.647Z,9.27
2018-02-22T23:47:51.278Z,9.03
2018-02-22T23:50:17.707Z,9.03
2018-02-22T23:52:44.199Z,10.23
2018-02-22T23:55:10.517Z,9.60
2018-02-22T23:57:36.989Z,9.50
